sensor_id;sensor_type;location;lat;lon;timestamp;P1;durP1;ratioP1;P2;durP2;ratioP2
2944;SDS011;1482;51.398;7.128;2023-04-25T00:01:59;15.10;;;9.20;;
2944;SDS011;1482;51.398;7.128;2023-04-25T00:04:24;15.70;;;7.63;;
2944;SDS011;1482;51.398;7.128;2023-04-25T00:06:50;16.07;;;6.20;;
2944;SDS011;1482;51.398;7.128;2023-04-25T00:09:17;13.47;;;6.70;;
2944;SDS011;1482;51.398;7.128;2023-04-25T00:11:42;10.07;;;6.53;;
2944;SDS011;1482;51.398;7.128;2023-04-25T00:14:08;13.00;;;6.87;;
2944;SDS011;1482;51.398;7.128;2023-04-25T00:16:34;14.73;;;6.80;;
2944;SDS011;1482;51.398;7.128;2023-04-25T00:19:03;17.83;;;6.50;;
2944;SDS011;1482;51.398;7.128;2023-04-25T00:21:29;14.70;;;6.97;;
2944;SDS011;1482;51.398;7.128;2023-04-25T00:23:56;12.53;;;6.53;;
2944;SDS011;1482;51.398;7.128;2023-04-25T00:26:22;13.93;;;6.93;;
2944;SDS011;1482;51.398;7.128;2023-04-25T00:28:48;14.90;;;7.03;;
2944;SDS011;1482;51.398;7.128;2023-04-25T00:31:13;16.80;;;6.60;;
2944;SDS011;1482;51.398;7.128;2023-04-25T00:33:39;12.43;;;6.37;;
2944;SDS011;1482;51.398;7.128;2023-04-25T00:36:05;11.20;;;6.10;;
2944;SDS011;1482;51.398;7.128;2023-04-25T00:38:31;14.87;;;6.73;;
2944;SDS011;1482;51.398;7.128;2023-04-25T00:40:57;11.37;;;6.80;;
2944;SDS011;1482;51.398;7.128;2023-04-25T00:43:23;10.10;;;5.33;;
2944;SDS011;1482;51.398;7.128;2023-04-25T00:45:50;10.93;;;6.17;;
2944;SDS011;1482;51.398;7.128;2023-04-25T00:48:17;14.00;;;6.70;;
2944;SDS011;1482;51.398;7.128;2023-04-25T00:50:47;14.30;;;5.80;;
2944;SDS011;1482;51.398;7.128;2023-04-25T00:53:19;8.33;;;5.37;;
2944;SDS011;1482;51.398;7.128;2023-04-25T00:55:46;10.93;;;5.43;;
2944;SDS011;1482;51.398;7.128;2023-04-25T00:58:11;11.80;;;5.60;;
2944;SDS011;1482;51.398;7.128;2023-04-25T01:00:37;9.03;;;5.70;;
2944;SDS011;1482;51.398;7.128;2023-04-25T01:03:03;15.83;;;6.17;;
2944;SDS011;1482;51.398;7.128;2023-04-25T01:05:29;15.23;;;5.70;;
2944;SDS011;1482;51.398;7.128;2023-04-25T01:07:54;11.90;;;6.00;;
2944;SDS011;1482;51.398;7.128;2023-04-25T01:10:20;13.53;;;6.63;;
2944;SDS011;1482;51.398;7.128;2023-04-25T01:12:46;9.30;;;5.83;;
2944;SDS011;1482;51.398;7.128;2023-04-25T01:15:12;24.60;;;7.23;;
2944;SDS011;1482;51.398;7.128;2023-04-25T01:17:37;17.27;;;6.70;;
2944;SDS011;1482;51.398;7.128;2023-04-25T01:20:04;18.53;;;6.90;;
2944;SDS011;1482;51.398;7.128;2023-04-25T01:22:31;20.77;;;6.60;;
2944;SDS011;1482;51.398;7.128;2023-04-25T01:24:57;13.73;;;7.33;;
2944;SDS011;1482;51.398;7.128;2023-04-25T01:27:23;16.57;;;7.03;;
2944;SDS011;1482;51.398;7.128;2023-04-25T01:29:50;15.87;;;7.40;;
2944;SDS011;1482;51.398;7.128;2023-04-25T01:32:16;22.20;;;7.57;;
2944;SDS011;1482;51.398;7.128;2023-04-25T01:34:42;21.20;;;6.70;;
2944;SDS011;1482;51.398;7.128;2023-04-25T01:37:08;12.33;;;9.13;;
2944;SDS011;1482;51.398;7.128;2023-04-25T01:39:33;12.10;;;7.60;;
2944;SDS011;1482;51.398;7.128;2023-04-25T01:41:59;10.63;;;7.50;;
2944;SDS011;1482;51.398;7.128;2023-04-25T01:44:25;9.83;;;7.50;;
2944;SDS011;1482;51.398;7.128;2023-04-25T01:46:51;19.10;;;8.70;;
2944;SDS011;1482;51.398;7.128;2023-04-25T01:49:17;15.57;;;8.27;;
2944;SDS011;1482;51.398;7.128;2023-04-25T01:51:42;10.60;;;8.10;;
2944;SDS011;1482;51.398;7.128;2023-04-25T01:54:08;16.57;;;8.30;;
2944;SDS011;1482;51.398;7.128;2023-04-25T01:56:36;11.37;;;7.00;;
2944;SDS011;1482;51.398;7.128;2023-04-25T01:59:06;10.27;;;6.73;;
2944;SDS011;1482;51.398;7.128;2023-04-25T02:01:32;10.40;;;6.33;;
2944;SDS011;1482;51.398;7.128;2023-04-25T02:03:58;13.13;;;7.83;;
2944;SDS011;1482;51.398;7.128;2023-04-25T02:06:23;12.20;;;6.97;;
2944;SDS011;1482;51.398;7.128;2023-04-25T02:08:49;19.13;;;8.33;;
2944;SDS011;1482;51.398;7.128;2023-04-25T02:11:15;15.10;;;8.50;;
2944;SDS011;1482;51.398;7.128;2023-04-25T02:13:40;11.20;;;7.30;;
2944;SDS011;1482;51.398;7.128;2023-04-25T02:16:06;9.90;;;6.50;;
2944;SDS011;1482;51.398;7.128;2023-04-25T02:18:31;19.00;;;8.37;;
2944;SDS011;1482;51.398;7.128;2023-04-25T02:20:58;14.50;;;6.67;;
2944;SDS011;1482;51.398;7.128;2023-04-25T02:23:24;16.93;;;7.43;;
2944;SDS011;1482;51.398;7.128;2023-04-25T02:25:50;13.17;;;6.53;;
2944;SDS011;1482;51.398;7.128;2023-04-25T02:28:16;7.90;;;6.70;;
2944;SDS011;1482;51.398;7.128;2023-04-25T02:30:42;9.80;;;7.23;;
2944;SDS011;1482;51.398;7.128;2023-04-25T02:33:07;11.37;;;6.23;;
2944;SDS011;1482;51.398;7.128;2023-04-25T02:35:33;15.43;;;6.60;;
2944;SDS011;1482;51.398;7.128;2023-04-25T02:37:58;20.70;;;8.93;;
2944;SDS011;1482;51.398;7.128;2023-04-25T02:40:24;14.00;;;7.77;;
2944;SDS011;1482;51.398;7.128;2023-04-25T02:42:49;16.00;;;7.63;;
2944;SDS011;1482;51.398;7.128;2023-04-25T02:45:15;16.73;;;6.87;;
2944;SDS011;1482;51.398;7.128;2023-04-25T02:47:40;13.13;;;7.70;;
2944;SDS011;1482;51.398;7.128;2023-04-25T02:50:06;19.37;;;8.60;;
2944;SDS011;1482;51.398;7.128;2023-04-25T02:52:32;13.13;;;8.10;;
2944;SDS011;1482;51.398;7.128;2023-04-25T02:54:58;12.67;;;7.43;;
2944;SDS011;1482;51.398;7.128;2023-04-25T02:57:23;15.97;;;8.17;;
2944;SDS011;1482;51.398;7.128;2023-04-25T02:59:49;11.20;;;6.83;;
2944;SDS011;1482;51.398;7.128;2023-04-25T03:02:14;12.73;;;8.40;;
2944;SDS011;1482;51.398;7.128;2023-04-25T03:04:40;15.97;;;9.00;;
2944;SDS011;1482;51.398;7.128;2023-04-25T03:07:06;15.30;;;8.83;;
2944;SDS011;1482;51.398;7.128;2023-04-25T03:09:31;14.53;;;9.10;;
2944;SDS011;1482;51.398;7.128;2023-04-25T03:11:57;18.43;;;8.73;;
2944;SDS011;1482;51.398;7.128;2023-04-25T03:14:23;12.63;;;7.87;;
2944;SDS011;1482;51.398;7.128;2023-04-25T03:16:48;14.27;;;8.20;;
2944;SDS011;1482;51.398;7.128;2023-04-25T03:19:14;15.93;;;9.00;;
2944;SDS011;1482;51.398;7.128;2023-04-25T03:21:41;15.83;;;9.37;;
2944;SDS011;1482;51.398;7.128;2023-04-25T03:24:08;17.50;;;10.17;;
2944;SDS011;1482;51.398;7.128;2023-04-25T03:26:33;21.77;;;9.93;;
2944;SDS011;1482;51.398;7.128;2023-04-25T03:28:59;25.20;;;11.60;;
2944;SDS011;1482;51.398;7.128;2023-04-25T03:31:24;26.87;;;11.97;;
2944;SDS011;1482;51.398;7.128;2023-04-25T03:33:50;18.00;;;11.17;;
2944;SDS011;1482;51.398;7.128;2023-04-25T03:36:16;18.60;;;10.53;;
2944;SDS011;1482;51.398;7.128;2023-04-25T03:38:41;18.30;;;11.67;;
2944;SDS011;1482;51.398;7.128;2023-04-25T03:41:07;17.20;;;10.67;;
2944;SDS011;1482;51.398;7.128;2023-04-25T03:43:32;19.40;;;11.30;;
2944;SDS011;1482;51.398;7.128;2023-04-25T03:45:58;21.87;;;11.40;;
2944;SDS011;1482;51.398;7.128;2023-04-25T03:48:25;23.47;;;11.10;;
2944;SDS011;1482;51.398;7.128;2023-04-25T03:50:51;21.57;;;12.77;;
2944;SDS011;1482;51.398;7.128;2023-04-25T03:53:17;20.20;;;12.37;;
2944;SDS011;1482;51.398;7.128;2023-04-25T03:55:42;18.93;;;13.23;;
2944;SDS011;1482;51.398;7.128;2023-04-25T03:58:08;20.07;;;12.70;;
2944;SDS011;1482;51.398;7.128;2023-04-25T04:00:34;26.13;;;13.23;;
2944;SDS011;1482;51.398;7.128;2023-04-25T04:03:00;19.90;;;12.23;;
2944;SDS011;1482;51.398;7.128;2023-04-25T04:05:25;29.53;;;14.03;;
2944;SDS011;1482;51.398;7.128;2023-04-25T04:07:52;30.63;;;12.53;;
2944;SDS011;1482;51.398;7.128;2023-04-25T04:10:18;26.90;;;12.17;;
2944;SDS011;1482;51.398;7.128;2023-04-25T04:12:43;25.23;;;13.27;;
2944;SDS011;1482;51.398;7.128;2023-04-25T04:15:09;28.93;;;13.80;;
2944;SDS011;1482;51.398;7.128;2023-04-25T04:17:35;26.53;;;14.40;;
2944;SDS011;1482;51.398;7.128;2023-04-25T04:20:01;20.53;;;12.93;;
2944;SDS011;1482;51.398;7.128;2023-04-25T04:22:28;19.50;;;11.70;;
2944;SDS011;1482;51.398;7.128;2023-04-25T04:24:54;20.33;;;10.47;;
2944;SDS011;1482;51.398;7.128;2023-04-25T04:27:19;26.10;;;13.90;;
2944;SDS011;1482;51.398;7.128;2023-04-25T04:29:46;21.83;;;11.70;;
2944;SDS011;1482;51.398;7.128;2023-04-25T04:32:12;21.23;;;12.23;;
2944;SDS011;1482;51.398;7.128;2023-04-25T04:34:38;30.23;;;9.50;;
2944;SDS011;1482;51.398;7.128;2023-04-25T04:37:04;19.73;;;8.90;;
2944;SDS011;1482;51.398;7.128;2023-04-25T04:39:32;14.53;;;8.67;;
2944;SDS011;1482;51.398;7.128;2023-04-25T04:41:58;18.73;;;9.50;;
2944;SDS011;1482;51.398;7.128;2023-04-25T04:44:24;18.23;;;9.13;;
2944;SDS011;1482;51.398;7.128;2023-04-25T04:46:50;19.93;;;9.17;;
2944;SDS011;1482;51.398;7.128;2023-04-25T04:49:16;16.40;;;8.73;;
2944;SDS011;1482;51.398;7.128;2023-04-25T04:51:42;17.63;;;8.10;;
2944;SDS011;1482;51.398;7.128;2023-04-25T04:54:09;14.37;;;7.07;;
2944;SDS011;1482;51.398;7.128;2023-04-25T04:56:35;10.87;;;5.77;;
2944;SDS011;1482;51.398;7.128;2023-04-25T04:59:01;13.53;;;5.67;;
2944;SDS011;1482;51.398;7.128;2023-04-25T05:01:27;24.47;;;7.43;;
2944;SDS011;1482;51.398;7.128;2023-04-25T05:03:54;12.80;;;6.33;;
2944;SDS011;1482;51.398;7.128;2023-04-25T05:06:24;15.67;;;8.40;;
2944;SDS011;1482;51.398;7.128;2023-04-25T05:08:51;25.53;;;10.17;;
2944;SDS011;1482;51.398;7.128;2023-04-25T05:11:19;23.77;;;10.47;;
2944;SDS011;1482;51.398;7.128;2023-04-25T05:13:44;15.63;;;9.90;;
2944;SDS011;1482;51.398;7.128;2023-04-25T05:16:10;19.93;;;8.40;;
2944;SDS011;1482;51.398;7.128;2023-04-25T05:18:36;17.13;;;9.17;;
2944;SDS011;1482;51.398;7.128;2023-04-25T05:21:02;17.43;;;8.60;;
2944;SDS011;1482;51.398;7.128;2023-04-25T05:23:28;18.33;;;8.53;;
2944;SDS011;1482;51.398;7.128;2023-04-25T05:25:55;18.00;;;9.63;;
2944;SDS011;1482;51.398;7.128;2023-04-25T05:28:20;21.13;;;8.37;;
2944;SDS011;1482;51.398;7.128;2023-04-25T05:30:46;16.03;;;7.57;;
2944;SDS011;1482;51.398;7.128;2023-04-25T05:33:12;20.90;;;8.10;;
2944;SDS011;1482;51.398;7.128;2023-04-25T05:35:37;16.67;;;7.93;;
2944;SDS011;1482;51.398;7.128;2023-04-25T05:38:03;23.17;;;8.20;;
2944;SDS011;1482;51.398;7.128;2023-04-25T05:40:28;12.53;;;7.83;;
2944;SDS011;1482;51.398;7.128;2023-04-25T05:42:54;17.63;;;7.33;;
2944;SDS011;1482;51.398;7.128;2023-04-25T05:45:20;14.33;;;6.90;;
2944;SDS011;1482;51.398;7.128;2023-04-25T05:47:45;15.33;;;6.57;;
2944;SDS011;1482;51.398;7.128;2023-04-25T05:50:11;20.40;;;7.23;;
2944;SDS011;1482;51.398;7.128;2023-04-25T05:52:36;14.53;;;6.37;;
2944;SDS011;1482;51.398;7.128;2023-04-25T05:55:02;15.30;;;6.60;;
2944;SDS011;1482;51.398;7.128;2023-04-25T05:57:27;10.30;;;6.10;;
2944;SDS011;1482;51.398;7.128;2023-04-25T05:59:53;18.93;;;6.80;;
2944;SDS011;1482;51.398;7.128;2023-04-25T06:02:19;15.20;;;6.83;;
2944;SDS011;1482;51.398;7.128;2023-04-25T06:04:49;14.90;;;7.07;;
2944;SDS011;1482;51.398;7.128;2023-04-25T06:07:15;10.70;;;6.40;;
2944;SDS011;1482;51.398;7.128;2023-04-25T06:09:41;21.43;;;7.40;;
2944;SDS011;1482;51.398;7.128;2023-04-25T06:12:06;15.60;;;6.00;;
2944;SDS011;1482;51.398;7.128;2023-04-25T06:14:33;20.23;;;7.83;;
2944;SDS011;1482;51.398;7.128;2023-04-25T06:16:59;10.90;;;5.70;;
2944;SDS011;1482;51.398;7.128;2023-04-25T06:19:24;18.57;;;7.93;;
2944;SDS011;1482;51.398;7.128;2023-04-25T06:21:50;17.67;;;6.10;;
2944;SDS011;1482;51.398;7.128;2023-04-25T06:24:15;18.17;;;6.10;;
2944;SDS011;1482;51.398;7.128;2023-04-25T06:26:41;13.67;;;5.50;;
2944;SDS011;1482;51.398;7.128;2023-04-25T06:29:06;13.83;;;6.00;;
2944;SDS011;1482;51.398;7.128;2023-04-25T06:31:32;12.67;;;6.80;;
2944;SDS011;1482;51.398;7.128;2023-04-25T06:33:58;11.97;;;5.30;;
2944;SDS011;1482;51.398;7.128;2023-04-25T06:36:24;14.43;;;6.30;;
2944;SDS011;1482;51.398;7.128;2023-04-25T06:38:51;8.20;;;5.83;;
2944;SDS011;1482;51.398;7.128;2023-04-25T06:41:17;11.83;;;5.10;;
2944;SDS011;1482;51.398;7.128;2023-04-25T06:43:43;15.37;;;6.13;;
2944;SDS011;1482;51.398;7.128;2023-04-25T06:46:09;14.43;;;6.77;;
2944;SDS011;1482;51.398;7.128;2023-04-25T06:48:35;13.50;;;6.50;;
2944;SDS011;1482;51.398;7.128;2023-04-25T06:51:00;10.13;;;6.30;;
2944;SDS011;1482;51.398;7.128;2023-04-25T06:53:26;15.10;;;5.53;;
2944;SDS011;1482;51.398;7.128;2023-04-25T06:55:51;9.83;;;6.23;;
2944;SDS011;1482;51.398;7.128;2023-04-25T06:58:17;11.37;;;5.27;;
2944;SDS011;1482;51.398;7.128;2023-04-25T07:00:43;11.47;;;5.23;;
2944;SDS011;1482;51.398;7.128;2023-04-25T07:03:08;9.20;;;5.23;;
2944;SDS011;1482;51.398;7.128;2023-04-25T07:05:34;14.77;;;5.27;;
2944;SDS011;1482;51.398;7.128;2023-04-25T07:08:00;12.93;;;5.23;;
2944;SDS011;1482;51.398;7.128;2023-04-25T07:10:25;8.70;;;5.27;;
2944;SDS011;1482;51.398;7.128;2023-04-25T07:12:51;15.07;;;4.80;;
2944;SDS011;1482;51.398;7.128;2023-04-25T07:15:17;8.20;;;4.27;;
2944;SDS011;1482;51.398;7.128;2023-04-25T07:17:42;14.40;;;5.27;;
2944;SDS011;1482;51.398;7.128;2023-04-25T07:20:08;10.50;;;3.97;;
2944;SDS011;1482;51.398;7.128;2023-04-25T07:22:35;9.27;;;3.00;;
2944;SDS011;1482;51.398;7.128;2023-04-25T07:25:00;11.33;;;3.50;;
2944;SDS011;1482;51.398;7.128;2023-04-25T07:27:26;12.67;;;3.20;;
2944;SDS011;1482;51.398;7.128;2023-04-25T07:29:52;3.40;;;2.90;;
2944;SDS011;1482;51.398;7.128;2023-04-25T07:32:18;7.90;;;3.47;;
2944;SDS011;1482;51.398;7.128;2023-04-25T07:34:44;5.10;;;2.67;;
2944;SDS011;1482;51.398;7.128;2023-04-25T07:37:09;5.60;;;2.83;;
2944;SDS011;1482;51.398;7.128;2023-04-25T07:39:35;9.57;;;2.93;;
2944;SDS011;1482;51.398;7.128;2023-04-25T07:42:02;9.30;;;3.23;;
2944;SDS011;1482;51.398;7.128;2023-04-25T07:44:28;8.53;;;3.63;;
2944;SDS011;1482;51.398;7.128;2023-04-25T07:46:55;10.03;;;3.23;;
2944;SDS011;1482;51.398;7.128;2023-04-25T07:49:21;12.07;;;3.10;;
2944;SDS011;1482;51.398;7.128;2023-04-25T07:51:47;18.97;;;3.60;;
2944;SDS011;1482;51.398;7.128;2023-04-25T07:54:13;8.03;;;2.83;;
2944;SDS011;1482;51.398;7.128;2023-04-25T07:56:40;12.30;;;3.83;;
2944;SDS011;1482;51.398;7.128;2023-04-25T07:59:05;11.03;;;4.13;;
2944;SDS011;1482;51.398;7.128;2023-04-25T08:01:31;11.37;;;3.93;;
2944;SDS011;1482;51.398;7.128;2023-04-25T08:03:56;11.63;;;3.50;;
2944;SDS011;1482;51.398;7.128;2023-04-25T08:06:22;10.67;;;2.70;;
2944;SDS011;1482;51.398;7.128;2023-04-25T08:08:48;7.00;;;2.83;;
2944;SDS011;1482;51.398;7.128;2023-04-25T08:11:13;9.43;;;2.97;;
2944;SDS011;1482;51.398;7.128;2023-04-25T08:13:39;17.60;;;3.50;;
2944;SDS011;1482;51.398;7.128;2023-04-25T08:16:04;9.43;;;3.40;;
2944;SDS011;1482;51.398;7.128;2023-04-25T08:18:30;9.63;;;3.20;;
2944;SDS011;1482;51.398;7.128;2023-04-25T08:20:55;6.67;;;3.47;;
2944;SDS011;1482;51.398;7.128;2023-04-25T08:23:21;5.50;;;3.50;;
2944;SDS011;1482;51.398;7.128;2023-04-25T08:25:47;9.80;;;4.20;;
2944;SDS011;1482;51.398;7.128;2023-04-25T08:28:12;6.43;;;3.27;;
2944;SDS011;1482;51.398;7.128;2023-04-25T08:30:38;7.70;;;3.20;;
2944;SDS011;1482;51.398;7.128;2023-04-25T08:33:03;7.20;;;2.87;;
2944;SDS011;1482;51.398;7.128;2023-04-25T08:35:29;11.80;;;3.50;;
2944;SDS011;1482;51.398;7.128;2023-04-25T08:37:54;6.73;;;3.17;;
2944;SDS011;1482;51.398;7.128;2023-04-25T08:40:20;7.60;;;3.00;;
2944;SDS011;1482;51.398;7.128;2023-04-25T08:42:51;7.83;;;3.20;;
2944;SDS011;1482;51.398;7.128;2023-04-25T08:45:18;5.83;;;2.90;;
2944;SDS011;1482;51.398;7.128;2023-04-25T08:47:43;7.07;;;2.53;;
2944;SDS011;1482;51.398;7.128;2023-04-25T08:50:10;5.73;;;2.40;;
2944;SDS011;1482;51.398;7.128;2023-04-25T08:52:37;3.23;;;2.40;;
2944;SDS011;1482;51.398;7.128;2023-04-25T08:55:08;5.10;;;2.03;;
2944;SDS011;1482;51.398;7.128;2023-04-25T08:57:36;8.97;;;2.60;;
2944;SDS011;1482;51.398;7.128;2023-04-25T09:00:03;7.30;;;2.70;;
2944;SDS011;1482;51.398;7.128;2023-04-25T09:02:29;6.47;;;3.17;;
2944;SDS011;1482;51.398;7.128;2023-04-25T09:04:55;11.77;;;3.50;;
2944;SDS011;1482;51.398;7.128;2023-04-25T09:07:21;10.20;;;2.90;;
2944;SDS011;1482;51.398;7.128;2023-04-25T09:09:47;10.03;;;2.70;;
2944;SDS011;1482;51.398;7.128;2023-04-25T09:12:12;15.10;;;3.40;;
2944;SDS011;1482;51.398;7.128;2023-04-25T09:14:38;9.70;;;3.60;;
2944;SDS011;1482;51.398;7.128;2023-04-25T09:17:04;7.80;;;2.80;;
2944;SDS011;1482;51.398;7.128;2023-04-25T09:19:31;7.10;;;2.80;;
2944;SDS011;1482;51.398;7.128;2023-04-25T09:22:00;15.23;;;2.53;;
2944;SDS011;1482;51.398;7.128;2023-04-25T09:27:12;6.57;;;2.10;;
2944;SDS011;1482;51.398;7.128;2023-04-25T09:29:42;6.60;;;2.67;;
2944;SDS011;1482;51.398;7.128;2023-04-25T09:32:18;7.83;;;2.33;;
2944;SDS011;1482;51.398;7.128;2023-04-25T09:34:52;9.03;;;2.90;;
2944;SDS011;1482;51.398;7.128;2023-04-25T09:37:25;6.47;;;2.70;;
2944;SDS011;1482;51.398;7.128;2023-04-25T09:39:53;6.53;;;2.23;;
2944;SDS011;1482;51.398;7.128;2023-04-25T09:42:23;7.73;;;2.93;;
2944;SDS011;1482;51.398;7.128;2023-04-25T09:44:51;14.43;;;2.33;;
2944;SDS011;1482;51.398;7.128;2023-04-25T09:47:20;7.23;;;3.20;;
2944;SDS011;1482;51.398;7.128;2023-04-25T09:49:48;10.90;;;2.50;;
2944;SDS011;1482;51.398;7.128;2023-04-25T09:52:15;4.77;;;2.70;;
2944;SDS011;1482;51.398;7.128;2023-04-25T09:54:45;7.57;;;2.67;;
2944;SDS011;1482;51.398;7.128;2023-04-25T09:59:51;5.50;;;2.80;;
2944;SDS011;1482;51.398;7.128;2023-04-25T10:02:18;7.03;;;2.73;;
2944;SDS011;1482;51.398;7.128;2023-04-25T10:04:49;5.43;;;2.50;;
2944;SDS011;1482;51.398;7.128;2023-04-25T10:07:17;16.73;;;2.67;;
2944;SDS011;1482;51.398;7.128;2023-04-25T10:09:44;6.43;;;2.80;;
2944;SDS011;1482;51.398;7.128;2023-04-25T10:12:12;7.17;;;2.40;;
2944;SDS011;1482;51.398;7.128;2023-04-25T10:14:38;6.70;;;3.17;;
2944;SDS011;1482;51.398;7.128;2023-04-25T10:17:05;9.70;;;2.90;;
2944;SDS011;1482;51.398;7.128;2023-04-25T10:19:32;7.57;;;2.73;;
2944;SDS011;1482;51.398;7.128;2023-04-25T10:24:28;4.87;;;2.43;;
2944;SDS011;1482;51.398;7.128;2023-04-25T10:26:53;7.03;;;2.33;;
2944;SDS011;1482;51.398;7.128;2023-04-25T10:29:24;6.27;;;2.40;;
2944;SDS011;1482;51.398;7.128;2023-04-25T10:31:50;6.23;;;1.83;;
2944;SDS011;1482;51.398;7.128;2023-04-25T10:34:16;6.00;;;2.60;;
2944;SDS011;1482;51.398;7.128;2023-04-25T10:36:42;4.80;;;2.27;;
2944;SDS011;1482;51.398;7.128;2023-04-25T10:39:13;6.43;;;1.90;;
2944;SDS011;1482;51.398;7.128;2023-04-25T10:41:57;6.60;;;2.00;;
2944;SDS011;1482;51.398;7.128;2023-04-25T10:44:27;5.07;;;2.00;;
2944;SDS011;1482;51.398;7.128;2023-04-25T10:46:55;3.83;;;2.10;;
2944;SDS011;1482;51.398;7.128;2023-04-25T10:49:31;6.23;;;2.10;;
2944;SDS011;1482;51.398;7.128;2023-04-25T10:54:56;6.17;;;2.40;;
2944;SDS011;1482;51.398;7.128;2023-04-25T10:57:26;4.50;;;2.33;;
2944;SDS011;1482;51.398;7.128;2023-04-25T11:00:14;4.53;;;1.60;;
2944;SDS011;1482;51.398;7.128;2023-04-25T11:02:42;10.00;;;2.27;;
2944;SDS011;1482;51.398;7.128;2023-04-25T11:05:20;2.73;;;1.83;;
2944;SDS011;1482;51.398;7.128;2023-04-25T11:07:57;6.73;;;2.17;;
2944;SDS011;1482;51.398;7.128;2023-04-25T11:10:27;6.97;;;1.83;;
2944;SDS011;1482;51.398;7.128;2023-04-25T11:12:58;5.30;;;2.57;;
2944;SDS011;1482;51.398;7.128;2023-04-25T11:15:25;7.50;;;2.23;;
2944;SDS011;1482;51.398;7.128;2023-04-25T11:17:51;6.60;;;3.00;;
2944;SDS011;1482;51.398;7.128;2023-04-25T11:20:17;12.27;;;2.60;;
2944;SDS011;1482;51.398;7.128;2023-04-25T11:22:44;7.63;;;3.50;;
2944;SDS011;1482;51.398;7.128;2023-04-25T11:25:11;6.40;;;2.00;;
2944;SDS011;1482;51.398;7.128;2023-04-25T11:27:39;6.27;;;2.03;;
2944;SDS011;1482;51.398;7.128;2023-04-25T11:30:22;7.30;;;1.90;;
2944;SDS011;1482;51.398;7.128;2023-04-25T11:32:48;4.60;;;1.73;;
2944;SDS011;1482;51.398;7.128;2023-04-25T11:35:15;4.80;;;1.83;;
2944;SDS011;1482;51.398;7.128;2023-04-25T11:37:41;3.93;;;2.07;;
2944;SDS011;1482;51.398;7.128;2023-04-25T11:40:07;7.93;;;1.73;;
2944;SDS011;1482;51.398;7.128;2023-04-25T11:42:36;4.17;;;1.70;;
2944;SDS011;1482;51.398;7.128;2023-04-25T11:45:08;4.00;;;2.47;;
2944;SDS011;1482;51.398;7.128;2023-04-25T11:47:34;3.77;;;2.33;;
2944;SDS011;1482;51.398;7.128;2023-04-25T11:50:04;9.37;;;2.27;;
2944;SDS011;1482;51.398;7.128;2023-04-25T11:55:07;6.43;;;2.10;;
2944;SDS011;1482;51.398;7.128;2023-04-25T11:57:40;5.17;;;1.67;;
2944;SDS011;1482;51.398;7.128;2023-04-25T12:00:11;6.93;;;2.63;;
2944;SDS011;1482;51.398;7.128;2023-04-25T12:02:42;9.33;;;2.40;;
2944;SDS011;1482;51.398;7.128;2023-04-25T12:05:08;4.40;;;2.20;;
2944;SDS011;1482;51.398;7.128;2023-04-25T12:07:35;3.13;;;1.73;;
2944;SDS011;1482;51.398;7.128;2023-04-25T12:10:06;2.13;;;1.60;;
2944;SDS011;1482;51.398;7.128;2023-04-25T12:12:33;4.37;;;2.00;;
2944;SDS011;1482;51.398;7.128;2023-04-25T12:15:10;4.40;;;2.30;;
2944;SDS011;1482;51.398;7.128;2023-04-25T12:17:44;3.77;;;1.70;;
2944;SDS011;1482;51.398;7.128;2023-04-25T12:20:15;8.33;;;2.30;;
2944;SDS011;1482;51.398;7.128;2023-04-25T12:22:45;4.47;;;2.77;;
2944;SDS011;1482;51.398;7.128;2023-04-25T12:25:12;7.17;;;2.00;;
2944;SDS011;1482;51.398;7.128;2023-04-25T12:27:39;3.40;;;1.83;;
2944;SDS011;1482;51.398;7.128;2023-04-25T12:30:07;3.10;;;1.90;;
2944;SDS011;1482;51.398;7.128;2023-04-25T12:32:33;3.00;;;1.87;;
2944;SDS011;1482;51.398;7.128;2023-04-25T12:34:59;7.03;;;2.30;;
2944;SDS011;1482;51.398;7.128;2023-04-25T12:37:24;6.40;;;2.60;;
2944;SDS011;1482;51.398;7.128;2023-04-25T12:39:50;5.23;;;2.10;;
2944;SDS011;1482;51.398;7.128;2023-04-25T12:42:16;7.40;;;2.37;;
2944;SDS011;1482;51.398;7.128;2023-04-25T12:44:41;7.53;;;2.33;;
2944;SDS011;1482;51.398;7.128;2023-04-25T12:47:07;3.93;;;2.27;;
2944;SDS011;1482;51.398;7.128;2023-04-25T12:49:32;3.13;;;2.10;;
2944;SDS011;1482;51.398;7.128;2023-04-25T12:51:58;6.27;;;2.77;;
2944;SDS011;1482;51.398;7.128;2023-04-25T12:54:24;5.77;;;3.60;;
2944;SDS011;1482;51.398;7.128;2023-04-25T12:56:50;7.90;;;3.23;;
2944;SDS011;1482;51.398;7.128;2023-04-25T12:59:16;3.20;;;2.17;;
2944;SDS011;1482;51.398;7.128;2023-04-25T13:01:41;5.23;;;2.00;;
2944;SDS011;1482;51.398;7.128;2023-04-25T13:04:07;2.37;;;1.50;;
2944;SDS011;1482;51.398;7.128;2023-04-25T13:06:33;4.77;;;2.40;;
2944;SDS011;1482;51.398;7.128;2023-04-25T13:08:58;4.87;;;1.83;;
2944;SDS011;1482;51.398;7.128;2023-04-25T13:11:24;4.00;;;1.67;;
2944;SDS011;1482;51.398;7.128;2023-04-25T13:13:50;3.27;;;1.73;;
2944;SDS011;1482;51.398;7.128;2023-04-25T13:16:15;4.20;;;2.03;;
2944;SDS011;1482;51.398;7.128;2023-04-25T13:18:41;7.80;;;1.67;;
2944;SDS011;1482;51.398;7.128;2023-04-25T13:21:07;3.83;;;1.77;;
2944;SDS011;1482;51.398;7.128;2023-04-25T13:23:34;2.90;;;1.20;;
2944;SDS011;1482;51.398;7.128;2023-04-25T13:26:00;3.30;;;1.80;;
2944;SDS011;1482;51.398;7.128;2023-04-25T13:28:28;2.53;;;1.63;;
2944;SDS011;1482;51.398;7.128;2023-04-25T13:30:53;2.93;;;2.03;;
2944;SDS011;1482;51.398;7.128;2023-04-25T13:33:19;5.03;;;1.73;;
2944;SDS011;1482;51.398;7.128;2023-04-25T13:35:46;7.53;;;2.07;;
2944;SDS011;1482;51.398;7.128;2023-04-25T13:38:18;3.57;;;1.50;;
2944;SDS011;1482;51.398;7.128;2023-04-25T13:40:47;4.40;;;1.80;;
2944;SDS011;1482;51.398;7.128;2023-04-25T13:43:13;1.67;;;1.57;;
2944;SDS011;1482;51.398;7.128;2023-04-25T13:45:39;3.80;;;1.87;;
2944;SDS011;1482;51.398;7.128;2023-04-25T13:48:04;5.63;;;1.60;;
2944;SDS011;1482;51.398;7.128;2023-04-25T13:50:30;5.57;;;2.20;;
2944;SDS011;1482;51.398;7.128;2023-04-25T13:52:56;4.50;;;2.00;;
2944;SDS011;1482;51.398;7.128;2023-04-25T13:55:22;5.83;;;2.20;;
2944;SDS011;1482;51.398;7.128;2023-04-25T13:57:47;3.63;;;1.90;;
2944;SDS011;1482;51.398;7.128;2023-04-25T14:00:13;6.40;;;2.20;;
2944;SDS011;1482;51.398;7.128;2023-04-25T14:02:39;5.77;;;2.00;;
2944;SDS011;1482;51.398;7.128;2023-04-25T14:05:05;11.23;;;2.70;;
2944;SDS011;1482;51.398;7.128;2023-04-25T14:07:32;5.13;;;2.60;;
2944;SDS011;1482;51.398;7.128;2023-04-25T14:09:58;9.20;;;2.30;;
2944;SDS011;1482;51.398;7.128;2023-04-25T14:12:24;5.30;;;1.93;;
2944;SDS011;1482;51.398;7.128;2023-04-25T14:14:50;3.70;;;1.53;;
2944;SDS011;1482;51.398;7.128;2023-04-25T14:17:16;6.73;;;1.70;;
2944;SDS011;1482;51.398;7.128;2023-04-25T14:19:41;4.30;;;1.60;;
2944;SDS011;1482;51.398;7.128;2023-04-25T14:22:12;4.83;;;1.90;;
2944;SDS011;1482;51.398;7.128;2023-04-25T14:24:39;4.43;;;1.20;;
2944;SDS011;1482;51.398;7.128;2023-04-25T14:27:04;2.93;;;2.20;;
2944;SDS011;1482;51.398;7.128;2023-04-25T14:29:30;7.20;;;1.47;;
2944;SDS011;1482;51.398;7.128;2023-04-25T14:31:56;5.37;;;1.77;;
2944;SDS011;1482;51.398;7.128;2023-04-25T14:34:23;3.70;;;1.27;;
2944;SDS011;1482;51.398;7.128;2023-04-25T14:36:49;2.80;;;1.30;;
2944;SDS011;1482;51.398;7.128;2023-04-25T14:39:15;3.67;;;1.30;;
2944;SDS011;1482;51.398;7.128;2023-04-25T14:41:41;3.00;;;1.37;;
2944;SDS011;1482;51.398;7.128;2023-04-25T14:44:07;1.87;;;1.30;;
2944;SDS011;1482;51.398;7.128;2023-04-25T14:46:33;1.67;;;1.17;;
2944;SDS011;1482;51.398;7.128;2023-04-25T14:48:58;2.60;;;1.40;;
2944;SDS011;1482;51.398;7.128;2023-04-25T14:51:24;3.93;;;1.80;;
2944;SDS011;1482;51.398;7.128;2023-04-25T14:53:51;5.40;;;1.70;;
2944;SDS011;1482;51.398;7.128;2023-04-25T14:56:17;2.47;;;1.07;;
2944;SDS011;1482;51.398;7.128;2023-04-25T14:58:43;7.03;;;1.80;;
2944;SDS011;1482;51.398;7.128;2023-04-25T15:01:10;2.13;;;1.20;;
2944;SDS011;1482;51.398;7.128;2023-04-25T15:03:36;3.13;;;1.63;;
2944;SDS011;1482;51.398;7.128;2023-04-25T15:06:01;1.93;;;1.13;;
2944;SDS011;1482;51.398;7.128;2023-04-25T15:08:27;8.70;;;1.63;;
2944;SDS011;1482;51.398;7.128;2023-04-25T15:10:53;4.93;;;1.80;;
2944;SDS011;1482;51.398;7.128;2023-04-25T15:13:18;4.03;;;1.80;;
2944;SDS011;1482;51.398;7.128;2023-04-25T15:15:44;5.60;;;1.63;;
2944;SDS011;1482;51.398;7.128;2023-04-25T15:18:15;4.60;;;1.37;;